sensor_id;sensor_type;location;lat;lon;timestamp;temperature;humidity
39695;DHT22;25367;-35.352;149.036;2022-12-16T00:02:06;20.10;49.50
39695;DHT22;25367;-35.352;149.036;2022-12-16T00:04:35;20.10;49.40
39695;DHT22;25367;-35.352;149.036;2022-12-16T00:07:05;20.10;49.40
39695;DHT22;25367;-35.352;149.036;2022-12-16T00:09:34;20.20;49.50
39695;DHT22;25367;-35.352;149.036;2022-12-16T00:12:04;20.10;49.30
39695;DHT22;25367;-35.352;149.036;2022-12-16T00:14:34;20.20;49.40
39695;DHT22;25367;-35.352;149.036;2022-12-16T00:17:05;20.20;49.30
39695;DHT22;25367;-35.352;149.036;2022-12-16T00:19:34;20.20;49.30
39695;DHT22;25367;-35.352;149.036;2022-12-16T00:22:04;20.20;49.20
39695;DHT22;25367;-35.352;149.036;2022-12-16T00:24:33;20.20;49.30
39695;DHT22;25367;-35.352;149.036;2022-12-16T00:27:03;20.20;49.70
39695;DHT22;25367;-35.352;149.036;2022-12-16T00:29:32;20.30;49.20
39695;DHT22;25367;-35.352;149.036;2022-12-16T00:32:02;20.30;49.10
39695;DHT22;25367;-35.352;149.036;2022-12-16T00:34:33;20.30;49.30
39695;DHT22;25367;-35.352;149.036;2022-12-16T00:37:03;20.30;49.10
39695;DHT22;25367;-35.352;149.036;2022-12-16T00:39:32;20.30;49.20
39695;DHT22;25367;-35.352;149.036;2022-12-16T00:42:01;20.30;49.00
39695;DHT22;25367;-35.352;149.036;2022-12-16T00:44:31;20.40;49.10
39695;DHT22;25367;-35.352;149.036;2022-12-16T00:47:00;20.30;49.00
39695;DHT22;25367;-35.352;149.036;2022-12-16T00:49:34;20.40;49.10
39695;DHT22;25367;-35.352;149.036;2022-12-16T00:52:04;20.40;49.00
39695;DHT22;25367;-35.352;149.036;2022-12-16T00:54:33;20.40;49.00
39695;DHT22;25367;-35.352;149.036;2022-12-16T00:57:03;20.40;49.00
39695;DHT22;25367;-35.352;149.036;2022-12-16T00:59:32;20.40;49.10
39695;DHT22;25367;-35.352;149.036;2022-12-16T01:02:01;20.40;49.20
39695;DHT22;25367;-35.352;149.036;2022-12-16T01:04:31;20.40;49.10
39695;DHT22;25367;-35.352;149.036;2022-12-16T01:07:02;20.50;48.90
39695;DHT22;25367;-35.352;149.036;2022-12-16T01:09:31;20.50;49.00
39695;DHT22;25367;-35.352;149.036;2022-12-16T01:12:01;20.50;49.00
39695;DHT22;25367;-35.352;149.036;2022-12-16T01:14:30;20.50;48.90
39695;DHT22;25367;-35.352;149.036;2022-12-16T01:17:00;20.50;48.90
39695;DHT22;25367;-35.352;149.036;2022-12-16T01:19:29;20.60;48.90
39695;DHT22;25367;-35.352;149.036;2022-12-16T01:22:00;20.60;48.90
39695;DHT22;25367;-35.352;149.036;2022-12-16T01:24:30;20.60;48.90
39695;DHT22;25367;-35.352;149.036;2022-12-16T01:26:59;20.60;48.90
39695;DHT22;25367;-35.352;149.036;2022-12-16T01:29:29;20.60;48.90
39695;DHT22;25367;-35.352;149.036;2022-12-16T01:31:58;20.60;48.80
39695;DHT22;25367;-35.352;149.036;2022-12-16T01:34:27;20.60;48.90
39695;DHT22;25367;-35.352;149.036;2022-12-16T01:36:57;20.60;48.90
39695;DHT22;25367;-35.352;149.036;2022-12-16T01:39:28;20.60;48.90
39695;DHT22;25367;-35.352;149.036;2022-12-16T01:41:58;20.70;49.00
39695;DHT22;25367;-35.352;149.036;2022-12-16T01:44:27;20.60;48.90
39695;DHT22;25367;-35.352;149.036;2022-12-16T01:46:59;20.70;49.00
39695;DHT22;25367;-35.352;149.036;2022-12-16T01:49:33;20.70;49.00
39695;DHT22;25367;-35.352;149.036;2022-12-16T01:52:06;20.70;49.00
39695;DHT22;25367;-35.352;149.036;2022-12-16T01:54:42;20.70;49.00
39695;DHT22;25367;-35.352;149.036;2022-12-16T01:57:14;20.70;48.90
39695;DHT22;25367;-35.352;149.036;2022-12-16T01:59:47;20.70;48.90
39695;DHT22;25367;-35.352;149.036;2022-12-16T02:02:17;20.80;49.00
39695;DHT22;25367;-35.352;149.036;2022-12-16T02:04:47;20.80;48.90
39695;DHT22;25367;-35.352;149.036;2022-12-16T02:07:16;20.80;49.00
39695;DHT22;25367;-35.352;149.036;2022-12-16T02:09:47;20.80;48.90
39695;DHT22;25367;-35.352;149.036;2022-12-16T02:12:24;20.80;48.90
39695;DHT22;25367;-35.352;149.036;2022-12-16T02:15:10;20.90;48.90
39695;DHT22;25367;-35.352;149.036;2022-12-16T02:17:48;20.90;48.80
39695;DHT22;25367;-35.352;149.036;2022-12-16T02:20:40;20.80;48.90
39695;DHT22;25367;-35.352;149.036;2022-12-16T02:26:37;20.90;48.80
39695;DHT22;25367;-35.352;149.036;2022-12-16T02:29:39;20.90;48.80
39695;DHT22;25367;-35.352;149.036;2022-12-16T02:32:19;20.90;48.80
39695;DHT22;25367;-35.352;149.036;2022-12-16T02:34:56;20.90;48.80
39695;DHT22;25367;-35.352;149.036;2022-12-16T02:37:35;20.90;48.80
39695;DHT22;25367;-35.352;149.036;2022-12-16T02:40:13;21.00;49.00
39695;DHT22;25367;-35.352;149.036;2022-12-16T02:42:48;20.90;48.80
39695;DHT22;25367;-35.352;149.036;2022-12-16T02:45:21;20.90;48.70
39695;DHT22;25367;-35.352;149.036;2022-12-16T02:47:55;20.90;48.70
39695;DHT22;25367;-35.352;149.036;2022-12-16T02:50:27;21.00;48.80
39695;DHT22;25367;-35.352;149.036;2022-12-16T02:52:56;21.00;48.70
39695;DHT22;25367;-35.352;149.036;2022-12-16T02:55:32;21.00;48.80
39695;DHT22;25367;-35.352;149.036;2022-12-16T02:58:12;20.90;48.90
39695;DHT22;25367;-35.352;149.036;2022-12-16T03:00:52;21.00;49.30
39695;DHT22;25367;-35.352;149.036;2022-12-16T03:03:31;21.00;48.70
39695;DHT22;25367;-35.352;149.036;2022-12-16T03:06:05;21.10;48.70
39695;DHT22;25367;-35.352;149.036;2022-12-16T03:08:38;21.10;48.70
39695;DHT22;25367;-35.352;149.036;2022-12-16T03:11:08;21.10;49.20
39695;DHT22;25367;-35.352;149.036;2022-12-16T03:13:40;21.10;48.60
39695;DHT22;25367;-35.352;149.036;2022-12-16T03:16:12;21.10;48.60
39695;DHT22;25367;-35.352;149.036;2022-12-16T03:18:46;21.20;48.70
39695;DHT22;25367;-35.352;149.036;2022-12-16T03:21:17;21.20;48.70
39695;DHT22;25367;-35.352;149.036;2022-12-16T03:23:52;21.20;48.70
39695;DHT22;25367;-35.352;149.036;2022-12-16T03:26:26;21.20;48.60
39695;DHT22;25367;-35.352;149.036;2022-12-16T03:29:00;21.20;48.50
39695;DHT22;25367;-35.352;149.036;2022-12-16T03:31:34;21.30;48.40
39695;DHT22;25367;-35.352;149.036;2022-12-16T03:34:11;21.30;48.60
39695;DHT22;25367;-35.352;149.036;2022-12-16T03:36:48;21.30;48.40
39695;DHT22;25367;-35.352;149.036;2022-12-16T03:39:20;21.30;48.50
39695;DHT22;25367;-35.352;149.036;2022-12-16T03:41:51;21.40;48.80
39695;DHT22;25367;-35.352;149.036;2022-12-16T03:44:22;21.40;48.50
39695;DHT22;25367;-35.352;149.036;2022-12-16T03:46:52;21.40;48.60
39695;DHT22;25367;-35.352;149.036;2022-12-16T03:49:24;21.40;48.50
39695;DHT22;25367;-35.352;149.036;2022-12-16T03:51:53;21.40;48.50
39695;DHT22;25367;-35.352;149.036;2022-12-16T03:54:23;21.50;48.60
39695;DHT22;25367;-35.352;149.036;2022-12-16T03:56:52;21.50;48.60
39695;DHT22;25367;-35.352;149.036;2022-12-16T03:59:22;21.50;48.50
39695;DHT22;25367;-35.352;149.036;2022-12-16T04:01:51;21.50;48.60
39695;DHT22;25367;-35.352;149.036;2022-12-16T04:04:23;21.60;48.40
39695;DHT22;25367;-35.352;149.036;2022-12-16T04:06:52;21.60;48.40
39695;DHT22;25367;-35.352;149.036;2022-12-16T04:09:22;21.50;47.40
39695;DHT22;25367;-35.352;149.036;2022-12-16T04:11:51;21.50;47.40
39695;DHT22;25367;-35.352;149.036;2022-12-16T04:14:20;21.50;46.90
39695;DHT22;25367;-35.352;149.036;2022-12-16T04:16:50;21.50;46.80
39695;DHT22;25367;-35.352;149.036;2022-12-16T04:19:24;21.50;46.70
39695;DHT22;25367;-35.352;149.036;2022-12-16T04:21:57;21.50;46.40
39695;DHT22;25367;-35.352;149.036;2022-12-16T04:24:28;21.50;45.70
39695;DHT22;25367;-35.352;149.036;2022-12-16T04:26:58;21.50;44.80
39695;DHT22;25367;-35.352;149.036;2022-12-16T04:29:27;21.50;45.00
39695;DHT22;25367;-35.352;149.036;2022-12-16T04:31:57;21.50;44.60
39695;DHT22;25367;-35.352;149.036;2022-12-16T04:34:29;21.50;44.70
39695;DHT22;25367;-35.352;149.036;2022-12-16T04:37:00;21.50;44.30
39695;DHT22;25367;-35.352;149.036;2022-12-16T04:39:30;21.50;44.00
39695;DHT22;25367;-35.352;149.036;2022-12-16T04:41:59;21.50;44.10
39695;DHT22;25367;-35.352;149.036;2022-12-16T04:44:29;21.50;43.70
39695;DHT22;25367;-35.352;149.036;2022-12-16T04:46:58;21.50;44.40
39695;DHT22;25367;-35.352;149.036;2022-12-16T04:49:29;21.60;44.70
39695;DHT22;25367;-35.352;149.036;2022-12-16T04:51:59;21.60;44.90
39695;DHT22;25367;-35.352;149.036;2022-12-16T04:54:28;21.60;45.40
39695;DHT22;25367;-35.352;149.036;2022-12-16T04:56:58;21.60;45.40
39695;DHT22;25367;-35.352;149.036;2022-12-16T04:59:27;21.70;45.60
39695;DHT22;25367;-35.352;149.036;2022-12-16T05:01:56;21.70;45.20
39695;DHT22;25367;-35.352;149.036;2022-12-16T05:04:28;21.80;45.20
39695;DHT22;25367;-35.352;149.036;2022-12-16T05:06:57;21.80;45.40
39695;DHT22;25367;-35.352;149.036;2022-12-16T05:09:26;21.80;45.10
39695;DHT22;25367;-35.352;149.036;2022-12-16T05:11:56;21.90;44.90
39695;DHT22;25367;-35.352;149.036;2022-12-16T05:14:25;21.90;44.90
39695;DHT22;25367;-35.352;149.036;2022-12-16T05:16:55;21.90;44.60
39695;DHT22;25367;-35.352;149.036;2022-12-16T05:19:25;22.00;44.40
39695;DHT22;25367;-35.352;149.036;2022-12-16T05:21:56;22.00;44.20
39695;DHT22;25367;-35.352;149.036;2022-12-16T05:24:26;22.00;44.30
39695;DHT22;25367;-35.352;149.036;2022-12-16T05:26:55;22.00;44.10
39695;DHT22;25367;-35.352;149.036;2022-12-16T05:29:25;22.10;44.30
39695;DHT22;25367;-35.352;149.036;2022-12-16T05:31:54;22.10;44.10
39695;DHT22;25367;-35.352;149.036;2022-12-16T05:34:23;22.10;44.00
39695;DHT22;25367;-35.352;149.036;2022-12-16T05:36:55;22.10;44.00
39695;DHT22;25367;-35.352;149.036;2022-12-16T05:39:25;22.20;43.30
39695;DHT22;25367;-35.352;149.036;2022-12-16T05:41:55;22.20;43.50
39695;DHT22;25367;-35.352;149.036;2022-12-16T05:44:24;22.20;43.40
39695;DHT22;25367;-35.352;149.036;2022-12-16T05:46:54;22.20;43.50
39695;DHT22;25367;-35.352;149.036;2022-12-16T05:49:23;22.30;43.40
39695;DHT22;25367;-35.352;149.036;2022-12-16T05:51:54;22.30;43.30
39695;DHT22;25367;-35.352;149.036;2022-12-16T05:54:24;22.30;43.00
39695;DHT22;25367;-35.352;149.036;2022-12-16T05:56:53;22.30;42.80
39695;DHT22;25367;-35.352;149.036;2022-12-16T05:59:23;22.30;42.90
39695;DHT22;25367;-35.352;149.036;2022-12-16T06:01:53;22.30;42.60
39695;DHT22;25367;-35.352;149.036;2022-12-16T06:04:22;22.30;42.20
39695;DHT22;25367;-35.352;149.036;2022-12-16T06:06:51;22.30;42.30
39695;DHT22;25367;-35.352;149.036;2022-12-16T06:09:23;22.40;42.60
39695;DHT22;25367;-35.352;149.036;2022-12-16T06:11:52;22.40;42.80
39695;DHT22;25367;-35.352;149.036;2022-12-16T06:14:21;22.40;42.90
39695;DHT22;25367;-35.352;149.036;2022-12-16T06:16:51;22.40;43.00
39695;DHT22;25367;-35.352;149.036;2022-12-16T06:19:20;22.40;43.00
39695;DHT22;25367;-35.352;149.036;2022-12-16T06:21:50;22.40;43.10
39695;DHT22;25367;-35.352;149.036;2022-12-16T06:24:21;22.40;43.10
39695;DHT22;25367;-35.352;149.036;2022-12-16T06:26:50;22.50;43.10
39695;DHT22;25367;-35.352;149.036;2022-12-16T06:29:20;22.50;43.20
39695;DHT22;25367;-35.352;149.036;2022-12-16T06:31:49;22.50;43.30
39695;DHT22;25367;-35.352;149.036;2022-12-16T06:34:18;22.50;43.40
39695;DHT22;25367;-35.352;149.036;2022-12-16T06:36:48;22.60;43.50
39695;DHT22;25367;-35.352;149.036;2022-12-16T06:39:18;22.60;43.50
39695;DHT22;25367;-35.352;149.036;2022-12-16T06:41:49;22.60;43.50
39695;DHT22;25367;-35.352;149.036;2022-12-16T06:44:19;22.60;43.50
39695;DHT22;25367;-35.352;149.036;2022-12-16T06:46:48;22.70;43.40
39695;DHT22;25367;-35.352;149.036;2022-12-16T06:49:17;22.70;43.30
39695;DHT22;25367;-35.352;149.036;2022-12-16T06:51:47;22.80;43.30
39695;DHT22;25367;-35.352;149.036;2022-12-16T06:54:16;22.80;43.30
39695;DHT22;25367;-35.352;149.036;2022-12-16T06:56:47;22.80;43.40
39695;DHT22;25367;-35.352;149.036;2022-12-16T06:59:17;22.90;43.40
39695;DHT22;25367;-35.352;149.036;2022-12-16T07:01:46;22.90;43.50
39695;DHT22;25367;-35.352;149.036;2022-12-16T07:04:16;22.90;43.50
39695;DHT22;25367;-35.352;149.036;2022-12-16T07:06:45;22.90;43.50
39695;DHT22;25367;-35.352;149.036;2022-12-16T07:09:15;22.90;43.50
39695;DHT22;25367;-35.352;149.036;2022-12-16T07:11:44;23.00;43.60
39695;DHT22;25367;-35.352;149.036;2022-12-16T07:14:15;23.00;43.60
39695;DHT22;25367;-35.352;149.036;2022-12-16T07:16:45;23.00;43.70
39695;DHT22;25367;-35.352;149.036;2022-12-16T07:19:15;23.10;43.80
39695;DHT22;25367;-35.352;149.036;2022-12-16T07:21:44;23.10;43.80
39695;DHT22;25367;-35.352;149.036;2022-12-16T07:24:13;23.10;43.80
39695;DHT22;25367;-35.352;149.036;2022-12-16T07:26:43;23.10;44.20
39695;DHT22;25367;-35.352;149.036;2022-12-16T07:29:15;23.10;44.10
39695;DHT22;25367;-35.352;149.036;2022-12-16T07:31:44;23.10;44.20
39695;DHT22;25367;-35.352;149.036;2022-12-16T07:34:13;23.10;44.10
39695;DHT22;25367;-35.352;149.036;2022-12-16T07:36:43;23.10;44.00
39695;DHT22;25367;-35.352;149.036;2022-12-16T07:39:12;23.10;44.10
39695;DHT22;25367;-35.352;149.036;2022-12-16T07:41:42;23.10;44.10
39695;DHT22;25367;-35.352;149.036;2022-12-16T07:44:17;23.10;44.10
39695;DHT22;25367;-35.352;149.036;2022-12-16T07:46:46;23.20;44.10
39695;DHT22;25367;-35.352;149.036;2022-12-16T07:49:16;23.20;44.00
39695;DHT22;25367;-35.352;149.036;2022-12-16T07:51:45;23.20;43.80
39695;DHT22;25367;-35.352;149.036;2022-12-16T07:54:14;23.30;43.90
39695;DHT22;25367;-35.352;149.036;2022-12-16T07:56:44;23.30;43.80
39695;DHT22;25367;-35.352;149.036;2022-12-16T07:59:13;23.40;43.90
39695;DHT22;25367;-35.352;149.036;2022-12-16T08:01:44;23.50;43.80
39695;DHT22;25367;-35.352;149.036;2022-12-16T08:04:14;23.40;43.80
39695;DHT22;25367;-35.352;149.036;2022-12-16T08:06:43;23.40;43.70
39695;DHT22;25367;-35.352;149.036;2022-12-16T08:09:13;23.50;43.80
39695;DHT22;25367;-35.352;149.036;2022-12-16T08:11:42;23.40;43.70
39695;DHT22;25367;-35.352;149.036;2022-12-16T08:14:12;23.50;43.70
39695;DHT22;25367;-35.352;149.036;2022-12-16T08:16:43;23.50;43.70
39695;DHT22;25367;-35.352;149.036;2022-12-16T08:19:12;23.50;43.80
39695;DHT22;25367;-35.352;149.036;2022-12-16T08:21:42;23.50;43.80
39695;DHT22;25367;-35.352;149.036;2022-12-16T08:24:11;23.50;43.80
39695;DHT22;25367;-35.352;149.036;2022-12-16T08:26:41;23.50;43.80
39695;DHT22;25367;-35.352;149.036;2022-12-16T08:29:11;23.40;43.40
39695;DHT22;25367;-35.352;149.036;2022-12-16T08:31:42;23.40;43.50
39695;DHT22;25367;-35.352;149.036;2022-12-16T08:34:12;23.40;43.50
39695;DHT22;25367;-35.352;149.036;2022-12-16T08:36:41;23.40;43.70
39695;DHT22;25367;-35.352;149.036;2022-12-16T08:39:11;23.30;43.60
39695;DHT22;25367;-35.352;149.036;2022-12-16T08:41:40;23.30;43.70
39695;DHT22;25367;-35.352;149.036;2022-12-16T08:44:10;23.30;43.70
39695;DHT22;25367;-35.352;149.036;2022-12-16T08:46:39;23.20;43.60
39695;DHT22;25367;-35.352;149.036;2022-12-16T08:49:11;23.20;43.60
39695;DHT22;25367;-35.352;149.036;2022-12-16T08:51:40;23.10;43.60
39695;DHT22;25367;-35.352;149.036;2022-12-16T08:54:10;23.10;43.80
39695;DHT22;25367;-35.352;149.036;2022-12-16T08:56:39;23.10;43.90
39695;DHT22;25367;-35.352;149.036;2022-12-16T08:59:09;23.00;44.00
39695;DHT22;25367;-35.352;149.036;2022-12-16T09:01:39;23.00;44.20
39695;DHT22;25367;-35.352;149.036;2022-12-16T09:04:10;23.00;44.30
39695;DHT22;25367;-35.352;149.036;2022-12-16T09:06:40;22.90;44.10
39695;DHT22;25367;-35.352;149.036;2022-12-16T09:09:09;22.90;43.90
39695;DHT22;25367;-35.352;149.036;2022-12-16T09:11:39;22.90;43.70
39695;DHT22;25367;-35.352;149.036;2022-12-16T09:14:08;22.80;43.60
39695;DHT22;25367;-35.352;149.036;2022-12-16T09:16:37;22.80;43.80
39695;DHT22;25367;-35.352;149.036;2022-12-16T09:19:13;22.80;43.90
39695;DHT22;25367;-35.352;149.036;2022-12-16T09:21:42;22.80;44.10
39695;DHT22;25367;-35.352;149.036;2022-12-16T09:24:11;22.70;44.20
39695;DHT22;25367;-35.352;149.036;2022-12-16T09:26:41;22.70;44.30
39695;DHT22;25367;-35.352;149.036;2022-12-16T09:29:10;22.70;44.50
39695;DHT22;25367;-35.352;149.036;2022-12-16T09:31:39;22.70;44.60
39695;DHT22;25367;-35.352;149.036;2022-12-16T09:34:11;22.60;44.70
39695;DHT22;25367;-35.352;149.036;2022-12-16T09:36:40;22.60;44.80
39695;DHT22;25367;-35.352;149.036;2022-12-16T09:39:09;22.60;44.80
39695;DHT22;25367;-35.352;149.036;2022-12-16T09:41:42;22.50;44.80
39695;DHT22;25367;-35.352;149.036;2022-12-16T09:44:18;22.50;44.80
39695;DHT22;25367;-35.352;149.036;2022-12-16T09:46:54;22.50;44.70
39695;DHT22;25367;-35.352;149.036;2022-12-16T09:49:37;22.50;45.00
39695;DHT22;25367;-35.352;149.036;2022-12-16T09:52:13;22.60;45.10
39695;DHT22;25367;-35.352;149.036;2022-12-16T09:54:46;22.60;45.00
39695;DHT22;25367;-35.352;149.036;2022-12-16T09:57:16;22.60;45.00
39695;DHT22;25367;-35.352;149.036;2022-12-16T09:59:52;22.60;45.10
39695;DHT22;25367;-35.352;149.036;2022-12-16T10:02:25;22.60;45.00
39695;DHT22;25367;-35.352;149.036;2022-12-16T10:04:56;22.70;45.10
39695;DHT22;25367;-35.352;149.036;2022-12-16T10:07:30;22.70;45.10
39695;DHT22;25367;-35.352;149.036;2022-12-16T10:10:06;22.70;45.00
39695;DHT22;25367;-35.352;149.036;2022-12-16T10:12:42;22.80;45.10
39695;DHT22;25367;-35.352;149.036;2022-12-16T10:15:22;22.80;45.10
39695;DHT22;25367;-35.352;149.036;2022-12-16T10:17:53;22.80;45.00
39695;DHT22;25367;-35.352;149.036;2022-12-16T10:23:27;22.90;45.10
39695;DHT22;25367;-35.352;149.036;2022-12-16T10:26:01;22.90;45.10
39695;DHT22;25367;-35.352;149.036;2022-12-16T10:28:44;23.00;45.00
39695;DHT22;25367;-35.352;149.036;2022-12-16T10:31:15;23.00;44.90
39695;DHT22;25367;-35.352;149.036;2022-12-16T10:33:48;23.00;44.80
39695;DHT22;25367;-35.352;149.036;2022-12-16T10:36:21;23.00;44.70
39695;DHT22;25367;-35.352;149.036;2022-12-16T10:38:53;23.10;44.70
39695;DHT22;25367;-35.352;149.036;2022-12-16T10:41:25;23.10;44.70
39695;DHT22;25367;-35.352;149.036;2022-12-16T10:43:57;23.10;44.70
39695;DHT22;25367;-35.352;149.036;2022-12-16T10:46:32;23.10;45.40
39695;DHT22;25367;-35.352;149.036;2022-12-16T10:49:01;23.10;44.70
39695;DHT22;25367;-35.352;149.036;2022-12-16T10:51:33;23.10;44.60
39695;DHT22;25367;-35.352;149.036;2022-12-16T10:54:26;23.10;44.60
39695;DHT22;25367;-35.352;149.036;2022-12-16T10:57:02;23.10;44.70
39695;DHT22;25367;-35.352;149.036;2022-12-16T10:59:38;23.10;44.70
39695;DHT22;25367;-35.352;149.036;2022-12-16T11:02:19;23.10;44.70
39695;DHT22;25367;-35.352;149.036;2022-12-16T11:04:50;23.10;44.70
39695;DHT22;25367;-35.352;149.036;2022-12-16T11:07:37;23.10;44.70
39695;DHT22;25367;-35.352;149.036;2022-12-16T11:10:23;23.10;44.70
39695;DHT22;25367;-35.352;149.036;2022-12-16T11:12:53;23.10;44.70
39695;DHT22;25367;-35.352;149.036;2022-12-16T11:15:26;23.10;44.60
39695;DHT22;25367;-35.352;149.036;2022-12-16T11:18:00;23.10;44.60
39695;DHT22;25367;-35.352;149.036;2022-12-16T11:20:29;23.00;44.90
39695;DHT22;25367;-35.352;149.036;2022-12-16T11:23:15;22.90;45.10
39695;DHT22;25367;-35.352;149.036;2022-12-16T11:25:45;23.00;45.00
39695;DHT22;25367;-35.352;149.036;2022-12-16T11:28:16;23.00;44.80
39695;DHT22;25367;-35.352;149.036;2022-12-16T11:30:51;23.10;44.80
39695;DHT22;25367;-35.352;149.036;2022-12-16T11:33:23;23.10;44.70
39695;DHT22;25367;-35.352;149.036;2022-12-16T11:35:56;23.10;44.60
39695;DHT22;25367;-35.352;149.036;2022-12-16T11:38:38;23.00;44.60
39695;DHT22;25367;-35.352;149.036;2022-12-16T11:41:17;23.10;44.70
39695;DHT22;25367;-35.352;149.036;2022-12-16T11:43:52;23.00;44.70
39695;DHT22;25367;-35.352;149.036;2022-12-16T11:46:26;23.00;44.80
39695;DHT22;25367;-35.352;149.036;2022-12-16T11:48:59;23.00;44.80
39695;DHT22;25367;-35.352;149.036;2022-12-16T11:51:29;23.10;45.00
39695;DHT22;25367;-35.352;149.036;2022-12-16T11:54:04;23.00;45.00
39695;DHT22;25367;-35.352;149.036;2022-12-16T11:56:38;22.90;45.10
39695;DHT22;25367;-35.352;149.036;2022-12-16T11:59:15;22.90;45.10
39695;DHT22;25367;-35.352;149.036;2022-12-16T12:01:49;22.90;45.00
39695;DHT22;25367;-35.352;149.036;2022-12-16T12:04:20;22.90;45.00
39695;DHT22;25367;-35.352;149.036;2022-12-16T12:10:05;22.90;45.00
39695;DHT22;25367;-35.352;149.036;2022-12-16T12:12:41;22.80;45.00
39695;DHT22;25367;-35.352;149.036;2022-12-16T12:15:20;22.80;45.10
39695;DHT22;25367;-35.352;149.036;2022-12-16T12:17:56;22.80;45.00
39695;DHT22;25367;-35.352;149.036;2022-12-16T12:20:38;22.80;45.00
39695;DHT22;25367;-35.352;149.036;2022-12-16T12:23:11;22.80;45.00
39695;DHT22;25367;-35.352;149.036;2022-12-16T12:25:48;22.80;45.10
39695;DHT22;25367;-35.352;149.036;2022-12-16T12:28:27;22.70;45.00
39695;DHT22;25367;-35.352;149.036;2022-12-16T12:31:05;22.70;45.10
39695;DHT22;25367;-35.352;149.036;2022-12-16T12:33:44;22.70;45.10
39695;DHT22;25367;-35.352;149.036;2022-12-16T12:36:22;22.70;45.10
39695;DHT22;25367;-35.352;149.036;2022-12-16T12:39:02;22.60;45.10
39695;DHT22;25367;-35.352;149.036;2022-12-16T12:41:51;22.60;45.10
39695;DHT22;25367;-35.352;149.036;2022-12-16T12:44:29;22.60;45.20
39695;DHT22;25367;-35.352;149.036;2022-12-16T12:47:03;22.60;45.10
39695;DHT22;25367;-35.352;149.036;2022-12-16T12:49:40;22.50;45.20
39695;DHT22;25367;-35.352;149.036;2022-12-16T12:52:20;22.50;45.20
39695;DHT22;25367;-35.352;149.036;2022-12-16T12:54:59;22.50;45.10
39695;DHT22;25367;-35.352;149.036;2022-12-16T12:57:33;22.50;45.10
39695;DHT22;25367;-35.352;149.036;2022-12-16T13:00:06;22.50;45.20
39695;DHT22;25367;-35.352;149.036;2022-12-16T13:02:47;22.40;45.00
39695;DHT22;25367;-35.352;149.036;2022-12-16T13:05:18;22.40;45.10
39695;DHT22;25367;-35.352;149.036;2022-12-16T13:07:47;22.40;45.60
39695;DHT22;25367;-35.352;149.036;2022-12-16T13:10:33;22.40;44.90
39695;DHT22;25367;-35.352;149.036;2022-12-16T13:13:30;22.40;44.90
39695;DHT22;25367;-35.352;149.036;2022-12-16T13:16:00;22.30;44.90
39695;DHT22;25367;-35.352;149.036;2022-12-16T13:18:30;22.20;44.80
39695;DHT22;25367;-35.352;149.036;2022-12-16T13:21:00;22.20;44.80
39695;DHT22;25367;-35.352;149.036;2022-12-16T13:23:31;22.20;44.80
39695;DHT22;25367;-35.352;149.036;2022-12-16T13:26:05;22.20;44.80
39695;DHT22;25367;-35.352;149.036;2022-12-16T13:28:38;22.20;44.80
39695;DHT22;25367;-35.352;149.036;2022-12-16T13:31:08;22.20;44.90
39695;DHT22;25367;-35.352;149.036;2022-12-16T13:33:38;22.10;44.80
39695;DHT22;25367;-35.352;149.036;2022-12-16T13:36:08;22.10;44.90
39695;DHT22;25367;-35.352;149.036;2022-12-16T13:38:45;22.10;44.90
39695;DHT22;25367;-35.352;149.036;2022-12-16T13:44:57;22.10;44.90
39695;DHT22;25367;-35.352;149.036;2022-12-16T13:47:36;22.00;44.90
39695;DHT22;25367;-35.352;149.036;2022-12-16T13:50:46;21.90;45.10
39695;DHT22;25367;-35.352;149.036;2022-12-16T13:53:18;21.90;45.00
39695;DHT22;25367;-35.352;149.036;2022-12-16T13:55:54;21.90;45.10
39695;DHT22;25367;-35.352;149.036;2022-12-16T13:58:34;21.90;45.00
39695;DHT22;25367;-35.352;149.036;2022-12-16T14:01:15;21.90;45.10
39695;DHT22;25367;-35.352;149.036;2022-12-16T14:03:48;21.80;45.10
39695;DHT22;25367;-35.352;149.036;2022-12-16T14:06:23;21.80;45.10
39695;DHT22;25367;-35.352;149.036;2022-12-16T14:08:54;21.80;45.10
39695;DHT22;25367;-35.352;149.036;2022-12-16T14:11:31;21.70;45.00
39695;DHT22;25367;-35.352;149.036;2022-12-16T14:14:07;21.70;45.00
39695;DHT22;25367;-35.352;149.036;2022-12-16T14:16:49;21.70;45.10
39695;DHT22;25367;-35.352;149.036;2022-12-16T14:19:25;21.70;45.10
39695;DHT22;25367;-35.352;149.036;2022-12-16T14:21:59;21.70;45.20
39695;DHT22;25367;-35.352;149.036;2022-12-16T14:24:31;21.70;45.20
39695;DHT22;25367;-35.352;149.036;2022-12-16T14:27:09;21.60;45.20
39695;DHT22;25367;-35.352;149.036;2022-12-16T14:29:43;21.70;45.20
39695;DHT22;25367;-35.352;149.036;2022-12-16T14:32:27;21.60;45.20
39695;DHT22;25367;-35.352;149.036;2022-12-16T14:35:01;21.60;45.10
39695;DHT22;25367;-35.352;149.036;2022-12-16T14:37:34;21.60;45.30
39695;DHT22;25367;-35.352;149.036;2022-12-16T14:40:16;21.50;45.20
39695;DHT22;25367;-35.352;149.036;2022-12-16T14:42:48;21.50;45.20
39695;DHT22;25367;-35.352;149.036;2022-12-16T14:45:25;21.50;45.30
39695;DHT22;25367;-35.352;149.036;2022-12-16T14:47:58;21.40;45.20
39695;DHT22;25367;-35.352;149.036;2022-12-16T14:50:29;21.40;45.20
39695;DHT22;25367;-35.352;149.036;2022-12-16T14:53:12;21.40;45.30
39695;DHT22;25367;-35.352;149.036;2022-12-16T14:55:42;21.50;45.30
39695;DHT22;25367;-35.352;149.036;2022-12-16T14:58:12;21.40;45.30
39695;DHT22;25367;-35.352;149.036;2022-12-16T15:00:42;21.40;45.40
39695;DHT22;25367;-35.352;149.036;2022-12-16T15:03:18;21.40;45.30
39695;DHT22;25367;-35.352;149.036;2022-12-16T15:05:53;21.40;45.30
39695;DHT22;25367;-35.352;149.036;2022-12-16T15:08:24;21.30;45.40
39695;DHT22;25367;-35.352;149.036;2022-12-16T15:10:54;21.30;45.40
39695;DHT22;25367;-35.352;149.036;2022-12-16T15:13:23;21.30;45.40
39695;DHT22;25367;-35.352;149.036;2022-12-16T15:15:53;21.30;45.40
39695;DHT22;25367;-35.352;149.036;2022-12-16T15:18:27;21.20;45.40
39695;DHT22;25367;-35.352;149.036;2022-12-16T15:20:59;21.20;45.40
39695;DHT22;25367;-35.352;149.036;2022-12-16T15:23:31;21.20;45.50
39695;DHT22;25367;-35.352;149.036;2022-12-16T15:26:01;21.20;45.50
39695;DHT22;25367;-35.352;149.036;2022-12-16T15:28:38;21.20;45.60
39695;DHT22;25367;-35.352;149.036;2022-12-16T15:31:24;21.20;45.50
39695;DHT22;25367;-35.352;149.036;2022-12-16T15:34:29;21.10;45.40